CheckWX is a tool to help pilots better visualize weather data.  It is not intended as a substitute for an official pre-flight weather briefing.

07:06:22 UTC

KLFI METAR
Langley AFB Airport
Hampton, Virginia, USA
Current

10 mins ago

KLFI 210656Z AUTO 26007KT 10SM BKN080 22/21 A2989 RMK AO2 SLP128 T02170207 $
Observed
May-21 @ 06:56 UTC
Wind
  • 260° at 7 KTS
Visibility
10 SM
Flight Rules
VFR
Cloud Levels
  • Broken at 8,000' AGL
Temperature
22°C / 72°F
Dewpoint
21°C / 70°F
Humidity
94%
Altimeter
29.89" Hg
Pressure
1012.22 hPa
Previous

1 hour ago

KLFI 210556Z AUTO 23008KT 10SM BKN080 BKN095 22/21 A2987 RMK AO2 SLP121 60005 T02240205 10291 20223 50003 $
Observed
May-21 @ 05:56 UTC
Wind
  • 230° at 8 KTS
Visibility
10 SM
Flight Rules
VFR
Cloud Levels
  • Broken at 8,000' AGL
  • Broken at 9,500' AGL
Temperature
22°C / 72°F
Dewpoint
21°C / 70°F
Humidity
94%
Altimeter
29.87" Hg
Pressure
1011.52 hPa
Previous

2 hours ago

KLFI 210456Z AUTO 22009KT 10SM SCT120 23/20 A2987 RMK AO2 SLP121 T02260201 403190220 $
Observed
May-21 @ 04:56 UTC
Wind
  • 220° at 9 KTS
Visibility
10 SM
Flight Rules
VFR
Cloud Levels
  • Scattered at 12,000' AGL
Temperature
23°C / 73°F
Dewpoint
20°C / 68°F
Humidity
83%
Altimeter
29.87" Hg
Pressure
1011.52 hPa